Aeroporto :
LOGIN :

Iscrizione | Disclaimer

   EN    FR    IT 

 










Sommario :    VFR   VFR Marginale   IFR   IFR Intensivo   IFR Molto Intensivo
Visibilità : 
Base nubi : 
>= 8 km
>= 3000ft
5 / 8 km
1000 / 3000 ft
1500m / 5 km
500 / 1000 ft
800 / 1500m
200 / 500 ft
< 800m
< 200 ft
Simboli :   Temporali  Nebbia  Neve Forte  Precipitazioni Forti  Vento > 20 kt
SIGMETs :   Varie  Temporali  Ghiacco  Turbolenza  Onda orograficha  Ceneri Vulcaniche






- Altitudine del aeroporto : 17 ft
- Codice IATA : DND


EGPN - Dundee

ULTIMO METAR :
  • 291250Z 23015KT 9999 FEW030 06/01 Q0969

METARs OBSOLETI :
  • 291220Z 23017KT 9999 FEW020 07/01 Q0970
  • 291150Z 24018KT 9999 FEW020 06/02 Q0969
  • 291120Z 24014KT 9999 FEW015 06/02 Q0969
  • 291050Z 23014KT 9999 FEW015 05/03 Q0970
  • 291020Z 24015KT 9999 FEW015 05/02 Q0969

TAF TAF EGPN
Valido dal 29 a 12 ore il 29 a 17 ore UTC


291107Z 2912/2917 24016KT 9999 SCT025
BECMG 2912/2915 17014KT
TEMPO 2912/2917 18020G30KT
TEMPO 2916/2917 5000 SHRA BKN012CB
PROB30
TEMPO 2916/2917 4000 SHRASN BKN007CB



MetMap, La meteo Aeronautica in un colpo d'occhio ! - Copyright ORBIFLY Dicembre 2007 - Disclaimer

ORBIFLY MET'MAP TEAM :

Programmazione e sviluppo : Alexandra Zaïnal
Concezione : Baudouin d'Aumeries
Aiuto per la programmazione : Marc-Olivier Méhu
Supporto tecnico e logistico : Manuel Goepfert
Aiuto per la traduzione : Arnaldo La Scala

Contatto : metmap@orbifly.com




FONTI E CREDITI :

   NOAA